Time;durP1;ratioP1;P1;durP2;ratioP2;P2;SDS_P1;SDS_P2;PMS_P1;PMS_P2;Temp;Humidity;BMP_temperature;BMP_pressure;BME280_temperature;BME280_humidity;BME280_pressure;Samples;Min_cycle;Max_cycle;Signal;HPM_P1;HPM_P2
2023/09/22 00:01:21;;;;;;;;;;;23.00;59.40;;;;;;5079272;28;19944;-60
2023/09/22 00:03:48;;;;;;;;;;;23.00;59.40;;;;;;5080984;28;19947;-59
2023/09/22 00:06:15;;;;;;;;;;;23.00;59.50;;;;;;5080302;28;19924;-59
2023/09/22 00:08:42;;;;;;;;;;;23.00;59.50;;;;;;5075999;28;19931;-59
2023/09/22 00:11:08;;;;;;;;;;;23.00;59.50;;;;;;5065511;28;19924;-59
2023/09/22 00:13:35;;;;;;;;;;;23.00;59.50;;;;;;5058719;28;19932;-60
2023/09/22 00:16:04;;;;;;;;;;;23.00;59.60;;;;;;5087820;28;19924;-59
2023/09/22 00:18:31;;;;;;;;;;;23.00;59.50;;;;;;5070463;28;19978;-59
2023/09/22 00:20:58;;;;;;;;;;;23.00;59.60;;;;;;5050004;28;19924;-59
2023/09/22 00:23:25;;;;;;;;;;;23.00;59.60;;;;;;5054839;28;19954;-59
2023/09/22 00:25:51;;;;;;;;;;;23.00;59.60;;;;;;5077677;28;19931;-59
2023/09/22 00:28:18;;;;;;;;;;;23.00;59.60;;;;;;5056782;28;19951;-59
2023/09/22 00:30:45;;;;;;;;;;;23.00;59.60;;;;;;5077248;28;19928;-60
2023/09/22 00:33:13;;;;;;;;;;;22.90;59.60;;;;;;5077279;28;19924;-59
2023/09/22 00:35:40;;;;;;;;;;;23.00;59.60;;;;;;5074579;28;19946;-59
2023/09/22 00:38:07;;;;;;;;;;;23.00;59.60;;;;;;5056110;28;19968;-59
2023/09/22 00:40:34;;;;;;;;;;;23.00;59.60;;;;;;5061992;28;20015;-60
2023/09/22 00:43:09;;;;;;;;;;;23.00;59.60;;;;;;5080893;28;19935;-59
2023/09/22 00:45:36;;;;;;;;;;;22.90;59.50;;;;;;5059901;28;19924;-59
2023/09/22 00:48:04;;;;;;;;;;;22.90;59.60;;;;;;5073650;28;19928;-59
2023/09/22 00:50:32;;;;;;;;;;;22.90;59.50;;;;;;5058081;28;20281;-59
2023/09/22 00:52:59;;;;;;;;;;;22.90;59.50;;;;;;5090657;28;19927;-60
2023/09/22 00:55:26;;;;;;;;;;;22.90;59.50;;;;;;5071657;28;20423;-59
2023/09/22 00:57:53;;;;;;;;;;;22.90;59.50;;;;;;5064346;28;19924;-59
2023/09/22 01:00:20;;;;;;;;;;;22.90;59.50;;;;;;5070259;28;19925;-59
2023/09/22 01:02:46;;;;;;;;;;;22.90;59.50;;;;;;5077003;28;19973;-59
2023/09/22 01:05:13;;;;;;;;;;;22.90;59.50;;;;;;5074542;28;19956;-59
2023/09/22 01:07:41;;;;;;;;;;;22.90;59.60;;;;;;5069483;28;19931;-60
2023/09/22 01:10:09;;;;;;;;;;;22.90;59.50;;;;;;5070917;28;20025;-60
2023/09/22 01:12:35;;;;;;;;;;;22.90;59.60;;;;;;5082982;28;20019;-59
2023/09/22 01:15:02;;;;;;;;;;;22.90;59.50;;;;;;5081327;28;19935;-60
2023/09/22 01:17:30;;;;;;;;;;;22.90;59.50;;;;;;5084194;28;20358;-59
2023/09/22 01:19:57;;;;;;;;;;;22.90;59.50;;;;;;5075792;28;19932;-59
2023/09/22 01:22:25;;;;;;;;;;;22.90;59.50;;;;;;5098317;28;19924;-59
2023/09/22 01:24:52;;;;;;;;;;;22.90;59.50;;;;;;5079887;28;19927;-59
2023/09/22 01:27:19;;;;;;;;;;;22.90;59.50;;;;;;5086887;28;19924;-60
2023/09/22 01:29:45;;;;;;;;;;;22.90;59.50;;;;;;5089002;28;19925;-59
2023/09/22 01:32:12;;;;;;;;;;;22.90;59.50;;;;;;5105122;28;19936;-59
2023/09/22 01:34:39;;;;;;;;;;;22.90;59.40;;;;;;5099182;28;20631;-59
2023/09/22 01:37:07;;;;;;;;;;;22.90;59.40;;;;;;5093939;28;19928;-59
2023/09/22 01:39:35;;;;;;;;;;;22.90;59.40;;;;;;5086011;28;19982;-60
2023/09/22 01:42:02;;;;;;;;;;;22.90;59.40;;;;;;5095657;28;19950;-59
2023/09/22 01:44:29;;;;;;;;;;;22.90;59.40;;;;;;5082987;28;20324;-59
2023/09/22 01:46:56;;;;;;;;;;;22.90;59.40;;;;;;5098242;28;20399;-60
2023/09/22 01:49:22;;;;;;;;;;;22.90;59.30;;;;;;5090519;28;19940;-59
2023/09/22 01:51:49;;;;;;;;;;;22.90;59.30;;;;;;5084565;28;19964;-59
2023/09/22 01:54:16;;;;;;;;;;;22.90;59.30;;;;;;5104262;28;19924;-60
2023/09/22 01:56:44;;;;;;;;;;;22.80;59.20;;;;;;5078557;28;19931;-59
2023/09/22 01:59:11;;;;;;;;;;;22.90;59.30;;;;;;5083794;28;19932;-59
2023/09/22 02:01:38;;;;;;;;;;;22.80;59.10;;;;;;5093985;28;19928;-59
2023/09/22 02:04:05;;;;;;;;;;;22.80;59.10;;;;;;5087083;28;19925;-59
2023/09/22 02:06:32;;;;;;;;;;;22.80;59.00;;;;;;5081473;28;19932;-59
2023/09/22 02:08:59;;;;;;;;;;;22.80;59.00;;;;;;5078565;28;20382;-59
2023/09/22 02:11:25;;;;;;;;;;;22.80;58.90;;;;;;5081884;28;19924;-59
2023/09/22 02:13:54;;;;;;;;;;;22.80;58.90;;;;;;5086557;28;19932;-59
2023/09/22 02:16:21;;;;;;;;;;;22.80;58.80;;;;;;5085442;28;19924;-59
2023/09/22 02:18:47;;;;;;;;;;;22.80;58.70;;;;;;5092090;28;19925;-59
2023/09/22 02:21:15;;;;;;;;;;;22.80;58.70;;;;;;5081222;28;19924;-59
2023/09/22 02:23:41;;;;;;;;;;;22.80;58.60;;;;;;5085851;28;19951;-59
2023/09/22 02:26:08;;;;;;;;;;;22.80;58.50;;;;;;5070649;28;20541;-60
2023/09/22 02:28:35;;;;;;;;;;;22.80;58.50;;;;;;5068140;28;20503;-59
2023/09/22 02:31:03;;;;;;;;;;;22.80;58.50;;;;;;5068196;28;19932;-59
2023/09/22 02:33:30;;;;;;;;;;;22.80;58.50;;;;;;5067980;28;19931;-60
2023/09/22 02:35:59;;;;;;;;;;;22.80;58.40;;;;;;5077161;28;19924;-59
2023/09/22 02:38:25;;;;;;;;;;;22.80;58.40;;;;;;5068599;28;19924;-60
2023/09/22 02:40:52;;;;;;;;;;;22.80;58.40;;;;;;5064831;28;20337;-59
2023/09/22 02:43:19;;;;;;;;;;;22.80;58.40;;;;;;5088342;28;19932;-59
2023/09/22 02:45:46;;;;;;;;;;;22.70;58.30;;;;;;5079793;28;19936;-59
2023/09/22 02:48:14;;;;;;;;;;;22.70;58.30;;;;;;5080222;28;20422;-59
2023/09/22 02:50:41;;;;;;;;;;;22.70;58.30;;;;;;5077299;28;19928;-59
2023/09/22 02:53:08;;;;;;;;;;;22.70;58.20;;;;;;5090841;28;19929;-59
2023/09/22 02:55:35;;;;;;;;;;;22.70;58.20;;;;;;5082368;28;19928;-59
2023/09/22 02:58:02;;;;;;;;;;;22.70;58.10;;;;;;5102965;28;19928;-59
2023/09/22 03:00:30;;;;;;;;;;;22.70;58.20;;;;;;5079511;28;20275;-59
2023/09/22 03:02:56;;;;;;;;;;;22.70;58.10;;;;;;5086254;28;19935;-60
2023/09/22 03:05:25;;;;;;;;;;;22.70;58.10;;;;;;5087748;28;19929;-61
2023/09/22 03:07:52;;;;;;;;;;;22.70;58.00;;;;;;5088903;28;20617;-59
2023/09/22 03:10:18;;;;;;;;;;;22.70;58.00;;;;;;5088112;28;19991;-59
2023/09/22 03:12:46;;;;;;;;;;;22.70;58.00;;;;;;5086169;28;20373;-59
2023/09/22 03:15:13;;;;;;;;;;;22.70;57.90;;;;;;5068434;28;20440;-60
2023/09/22 03:17:41;;;;;;;;;;;22.70;57.90;;;;;;5082748;28;20298;-59
2023/09/22 03:20:12;;;;;;;;;;;22.70;57.80;;;;;;5088359;28;19977;-60
2023/09/22 03:22:40;;;;;;;;;;;22.70;57.80;;;;;;5079004;28;19935;-60
2023/09/22 03:25:08;;;;;;;;;;;22.70;57.80;;;;;;5076092;28;19924;-59
2023/09/22 03:27:35;;;;;;;;;;;22.70;57.70;;;;;;5081108;28;20023;-59
2023/09/22 03:30:02;;;;;;;;;;;22.70;57.70;;;;;;5070872;28;19925;-59
2023/09/22 03:32:29;;;;;;;;;;;22.70;57.70;;;;;;5073115;28;19932;-59
2023/09/22 03:34:57;;;;;;;;;;;22.70;57.70;;;;;;5092856;28;19924;-60
2023/09/22 03:37:27;;;;;;;;;;;22.70;57.70;;;;;;5080485;28;19932;-60
2023/09/22 03:39:55;;;;;;;;;;;22.70;57.70;;;;;;5079126;28;20029;-59
2023/09/22 03:42:22;;;;;;;;;;;22.70;57.70;;;;;;5071028;28;20057;-59
2023/09/22 03:44:49;;;;;;;;;;;22.60;57.70;;;;;;5094388;28;19924;-60
2023/09/22 03:47:15;;;;;;;;;;;22.70;57.70;;;;;;5083737;28;19959;-60
2023/09/22 03:49:42;;;;;;;;;;;22.70;57.70;;;;;;5097128;28;19932;-59
2023/09/22 03:52:09;;;;;;;;;;;22.70;57.70;;;;;;5071926;28;19970;-60
2023/09/22 03:54:36;;;;;;;;;;;22.70;57.90;;;;;;5079050;28;19928;-59
2023/09/22 03:57:06;;;;;;;;;;;22.60;57.70;;;;;;5089011;28;19924;-60
2023/09/22 03:59:33;;;;;;;;;;;22.70;57.70;;;;;;5093256;28;20393;-60
2023/09/22 04:02:00;;;;;;;;;;;22.70;58.30;;;;;;5098555;28;19924;-59
2023/09/22 04:04:28;;;;;;;;;;;22.70;57.70;;;;;;5087956;28;19947;-60
2023/09/22 04:06:55;;;;;;;;;;;22.70;57.70;;;;;;5064388;28;19951;-59
2023/09/22 04:09:22;;;;;;;;;;;22.60;57.70;;;;;;5108412;28;19979;-59
2023/09/22 04:11:49;;;;;;;;;;;22.60;57.70;;;;;;5081550;28;19925;-59
2023/09/22 04:14:20;;;;;;;;;;;22.60;57.70;;;;;;5079467;28;20205;-59
2023/09/22 04:16:47;;;;;;;;;;;22.60;57.70;;;;;;5078019;28;19931;-60
2023/09/22 04:19:13;;;;;;;;;;;22.70;57.70;;;;;;5073437;28;19929;-59
2023/09/22 04:21:43;;;;;;;;;;;22.70;57.70;;;;;;5073429;28;20327;-60
2023/09/22 04:24:11;;;;;;;;;;;22.70;57.70;;;;;;5066428;28;19931;-60
2023/09/22 04:26:42;;;;;;;;;;;22.70;57.70;;;;;;5076686;28;19931;-60
2023/09/22 04:29:09;;;;;;;;;;;22.60;57.70;;;;;;5091593;28;19924;-59
2023/09/22 04:31:37;;;;;;;;;;;22.60;57.70;;;;;;5084212;28;19928;-60
2023/09/22 04:34:04;;;;;;;;;;;22.60;57.70;;;;;;5074292;28;19978;-59
2023/09/22 04:36:32;;;;;;;;;;;22.60;57.60;;;;;;5079208;28;19932;-59
2023/09/22 04:39:00;;;;;;;;;;;22.60;57.60;;;;;;5074307;28;19993;-59
2023/09/22 04:41:26;;;;;;;;;;;22.60;57.60;;;;;;5079502;28;19959;-59
2023/09/22 04:43:54;;;;;;;;;;;22.60;57.60;;;;;;5099855;28;19924;-59
2023/09/22 04:46:21;;;;;;;;;;;22.60;57.60;;;;;;5077346;28;19982;-59
2023/09/22 04:48:49;;;;;;;;;;;22.60;57.50;;;;;;5084583;28;20023;-59
2023/09/22 04:51:15;;;;;;;;;;;22.60;57.50;;;;;;5076192;28;19929;-60
2023/09/22 04:53:42;;;;;;;;;;;22.60;57.50;;;;;;5094013;28;19970;-59
2023/09/22 04:56:09;;;;;;;;;;;22.60;57.40;;;;;;5075454;28;19978;-60
2023/09/22 04:58:37;;;;;;;;;;;22.60;57.40;;;;;;5086878;28;19935;-59
2023/09/22 05:01:04;;;;;;;;;;;22.60;57.40;;;;;;5060522;28;20027;-59
2023/09/22 05:03:31;;;;;;;;;;;22.60;57.40;;;;;;5092110;28;19924;-59
2023/09/22 05:06:06;;;;;;;;;;;22.60;57.40;;;;;;5082455;28;20189;-59
2023/09/22 05:08:33;;;;;;;;;;;22.60;57.30;;;;;;5081681;28;20247;-59
2023/09/22 05:11:03;;;;;;;;;;;22.60;57.30;;;;;;5083279;28;19928;-60
2023/09/22 05:13:30;;;;;;;;;;;22.60;57.30;;;;;;5070776;28;19963;-60
2023/09/22 05:16:04;;;;;;;;;;;22.60;57.20;;;;;;5087465;28;19924;-60
2023/09/22 05:18:31;;;;;;;;;;;22.60;57.20;;;;;;5071244;28;19974;-59
2023/09/22 05:20:59;;;;;;;;;;;22.60;57.20;;;;;;5071609;28;19932;-59
2023/09/22 05:23:27;;;;;;;;;;;22.60;57.20;;;;;;5095530;28;19939;-59
2023/09/22 05:25:54;;;;;;;;;;;22.60;57.10;;;;;;5101832;28;20319;-59
2023/09/22 05:28:21;;;;;;;;;;;22.60;57.10;;;;;;5080530;28;19932;-59
2023/09/22 05:30:48;;;;;;;;;;;22.60;57.10;;;;;;5081994;28;19931;-59
2023/09/22 05:33:14;;;;;;;;;;;22.60;57.00;;;;;;5086692;28;19932;-59
2023/09/22 05:35:41;;;;;;;;;;;22.50;57.00;;;;;;5084245;28;20466;-59
2023/09/22 05:38:08;;;;;;;;;;;22.60;57.00;;;;;;5095350;28;19935;-59
2023/09/22 05:40:36;;;;;;;;;;;22.60;57.00;;;;;;5080285;28;19939;-59
2023/09/22 05:43:04;;;;;;;;;;;22.60;57.00;;;;;;5105298;28;19924;-59
2023/09/22 05:45:31;;;;;;;;;;;22.60;57.00;;;;;;5069052;28;20015;-59
2023/09/22 05:47:58;;;;;;;;;;;22.60;57.00;;;;;;5068491;28;19925;-59
2023/09/22 05:50:25;;;;;;;;;;;22.60;56.90;;;;;;5072828;28;19924;-59
2023/09/22 05:52:52;;;;;;;;;;;22.60;56.90;;;;;;5074171;28;19924;-59
2023/09/22 05:55:19;;;;;;;;;;;22.60;56.90;;;;;;5085429;28;19970;-59
2023/09/22 05:57:47;;;;;;;;;;;22.50;56.80;;;;;;5068438;28;20501;-59
2023/09/22 06:00:16;;;;;;;;;;;22.50;56.80;;;;;;5102036;28;19928;-59
2023/09/22 06:02:46;;;;;;;;;;;22.50;56.70;;;;;;5069881;28;19924;-59
2023/09/22 06:05:14;;;;;;;;;;;22.50;56.70;;;;;;5068197;28;20289;-60
2023/09/22 06:07:41;;;;;;;;;;;22.50;56.70;;;;;;5098195;28;19924;-60
2023/09/22 06:10:09;;;;;;;;;;;22.50;56.70;;;;;;5071261;28;19932;-60
2023/09/22 06:12:36;;;;;;;;;;;22.50;56.70;;;;;;5098366;28;19930;-59
2023/09/22 06:15:06;;;;;;;;;;;22.50;56.70;;;;;;5089009;28;19924;-59
2023/09/22 06:17:33;;;;;;;;;;;22.50;56.70;;;;;;5093752;28;19931;-59
2023/09/22 06:20:07;;;;;;;;;;;22.50;56.60;;;;;;5079713;28;19924;-59
2023/09/22 06:22:34;;;;;;;;;;;22.50;56.60;;;;;;5104903;28;19924;-60
2023/09/22 06:25:01;;;;;;;;;;;22.50;56.50;;;;;;5072197;28;19928;-60
2023/09/22 06:27:28;;;;;;;;;;;22.50;56.50;;;;;;5076480;28;19931;-59
2023/09/22 06:29:55;;;;;;;;;;;22.50;56.50;;;;;;5079074;28;19924;-60
2023/09/22 06:32:23;;;;;;;;;;;22.50;56.60;;;;;;5107108;28;19929;-59
2023/09/22 06:34:52;;;;;;;;;;;22.50;56.50;;;;;;5080190;28;19939;-60
2023/09/22 06:37:19;;;;;;;;;;;22.50;56.50;;;;;;5086388;28;19925;-59
2023/09/22 06:39:46;;;;;;;;;;;22.50;56.50;;;;;;5070668;28;19931;-60
2023/09/22 06:42:13;;;;;;;;;;;22.50;56.50;;;;;;5088199;28;19924;-60
2023/09/22 06:44:39;;;;;;;;;;;22.40;56.40;;;;;;5081879;28;19946;-59
2023/09/22 06:47:07;;;;;;;;;;;22.50;56.50;;;;;;5091305;28;19939;-60
2023/09/22 06:49:35;;;;;;;;;;;22.50;56.40;;;;;;5082745;28;20014;-60
2023/09/22 06:52:03;;;;;;;;;;;22.50;56.40;;;;;;5101211;28;19932;-60
2023/09/22 06:54:29;;;;;;;;;;;22.50;56.40;;;;;;5078546;28;19928;-60
2023/09/22 06:56:56;;;;;;;;;;;22.50;56.40;;;;;;5081019;28;19947;-59
2023/09/22 06:59:23;;;;;;;;;;;22.50;56.40;;;;;;5079878;28;19973;-60
2023/09/22 07:01:50;;;;;;;;;;;22.50;56.40;;;;;;5081164;28;19986;-59
2023/09/22 07:04:17;;;;;;;;;;;22.50;56.30;;;;;;5105987;28;19978;-59
2023/09/22 07:06:45;;;;;;;;;;;22.50;56.20;;;;;;5073610;28;19967;-59
2023/09/22 07:09:12;;;;;;;;;;;22.40;56.10;;;;;;5084455;28;19928;-59
2023/09/22 07:11:40;;;;;;;;;;;22.40;56.10;;;;;;5091499;28;20286;-60
2023/09/22 07:14:07;;;;;;;;;;;22.40;56.10;;;;;;5072650;28;19978;-60
2023/09/22 07:16:34;;;;;;;;;;;22.40;56.00;;;;;;5105654;28;19925;-60
2023/09/22 07:19:01;;;;;;;;;;;22.40;56.00;;;;;;5076965;28;20041;-60
2023/09/22 07:21:27;;;;;;;;;;;22.40;56.00;;;;;;5089060;28;19932;-60
2023/09/22 07:23:56;;;;;;;;;;;22.40;55.80;;;;;;5072984;28;19924;-58
2023/09/22 07:26:23;;;;;;;;;;;22.40;55.90;;;;;;5079185;28;20001;-60
2023/09/22 07:28:50;;;;;;;;;;;22.40;55.80;;;;;;5072937;28;19974;-59
2023/09/22 07:31:18;;;;;;;;;;;22.40;55.80;;;;;;5079935;28;19928;-60
2023/09/22 07:33:45;;;;;;;;;;;22.40;55.70;;;;;;5080837;28;19952;-60
2023/09/22 07:36:12;;;;;;;;;;;22.40;55.70;;;;;;5090474;28;19924;-60
2023/09/22 07:38:39;;;;;;;;;;;22.40;55.70;;;;;;5082991;28;19974;-60
2023/09/22 07:41:08;;;;;;;;;;;22.40;55.60;;;;;;5075012;28;19924;-60
2023/09/22 07:43:35;;;;;;;;;;;22.40;55.60;;;;;;5080180;28;19934;-59
2023/09/22 07:46:04;;;;;;;;;;;22.40;55.60;;;;;;5081197;28;20393;-61
2023/09/22 07:48:31;;;;;;;;;;;22.40;55.50;;;;;;5080189;28;19924;-60
2023/09/22 07:50:57;;;;;;;;;;;22.40;55.50;;;;;;5105263;28;19964;-59
2023/09/22 07:53:25;;;;;;;;;;;22.40;55.40;;;;;;5086675;28;19931;-60
2023/09/22 07:55:55;;;;;;;;;;;22.40;55.40;;;;;;5052390;28;19993;-60
2023/09/22 07:58:23;;;;;;;;;;;22.40;55.40;;;;;;5092051;28;19932;-60
2023/09/22 08:00:50;;;;;;;;;;;22.40;55.40;;;;;;5070807;28;19924;-59
2023/09/22 08:03:18;;;;;;;;;;;22.40;55.40;;;;;;5102621;28;19928;-60
2023/09/22 08:05:45;;;;;;;;;;;22.40;55.40;;;;;;5066064;28;19925;-60
2023/09/22 08:08:13;;;;;;;;;;;22.40;55.40;;;;;;5091108;28;20019;-60
2023/09/22 08:10:40;;;;;;;;;;;22.40;55.40;;;;;;5078400;28;19995;-60
2023/09/22 08:13:07;;;;;;;;;;;22.40;55.40;;;;;;5074782;28;20235;-60
2023/09/22 08:15:37;;;;;;;;;;;22.40;55.40;;;;;;5081524;28;19924;-60
2023/09/22 08:18:05;;;;;;;;;;;22.40;55.40;;;;;;5088855;28;19924;-60
2023/09/22 08:20:32;;;;;;;;;;;22.40;55.40;;;;;;5078034;28;19925;-60
2023/09/22 08:22:59;;;;;;;;;;;22.40;55.40;;;;;;5077431;28;19936;-60
2023/09/22 08:25:26;;;;;;;;;;;22.40;55.40;;;;;;5082592;28;20010;-60
2023/09/22 08:27:54;;;;;;;;;;;22.40;55.40;;;;;;5078163;28;20282;-60
2023/09/22 08:30:21;;;;;;;;;;;22.40;55.40;;;;;;5055602;28;19931;-60
2023/09/22 08:32:49;;;;;;;;;;;22.40;55.40;;;;;;5067969;28;19931;-60
2023/09/22 08:35:17;;;;;;;;;;;22.40;55.30;;;;;;5102160;28;19939;-60
2023/09/22 08:37:43;;;;;;;;;;;22.40;55.30;;;;;;5103322;27;19966;-60
2023/09/22 08:40:11;;;;;;;;;;;22.40;55.30;;;;;;5070225;28;19931;-60
2023/09/22 08:42:38;;;;;;;;;;;22.40;55.20;;;;;;5066471;28;19948;-60
2023/09/22 08:45:06;;;;;;;;;;;22.40;55.20;;;;;;5086290;28;19931;-60
2023/09/22 08:47:38;;;;;;;;;;;22.40;55.10;;;;;;5070484;28;19955;-60
2023/09/22 08:50:07;;;;;;;;;;;22.40;55.00;;;;;;5070095;28;19959;-61
2023/09/22 08:52:33;;;;;;;;;;;22.40;55.00;;;;;;5069547;28;19943;-60
2023/09/22 08:55:04;;;;;;;;;;;22.40;54.90;;;;;;5069476;28;19932;-60
2023/09/22 08:57:30;;;;;;;;;;;22.40;54.80;;;;;;5102075;28;19970;-58
2023/09/22 08:59:57;;;;;;;;;;;22.40;54.70;;;;;;5069587;28;19928;-59
2023/09/22 09:02:25;;;;;;;;;;;22.40;54.60;;;;;;5055165;28;19924;-59
2023/09/22 09:04:53;;;;;;;;;;;22.40;54.60;;;;;;5085758;28;19925;-59
2023/09/22 09:07:21;;;;;;;;;;;22.40;54.50;;;;;;5071671;28;19932;-59
2023/09/22 09:09:48;;;;;;;;;;;22.40;54.50;;;;;;5052012;28;19928;-60
2023/09/22 09:12:15;;;;;;;;;;;22.40;54.40;;;;;;5070944;28;19928;-61
2023/09/22 09:14:43;;;;;;;;;;;22.40;54.40;;;;;;5081562;28;19961;-58
2023/09/22 09:17:17;;;;;;;;;;;22.40;54.30;;;;;;5061783;28;19925;-59
2023/09/22 09:19:48;;;;;;;;;;;22.40;54.20;;;;;;5080385;28;20473;-59
2023/09/22 09:22:15;;;;;;;;;;;22.40;54.10;;;;;;5069259;28;19928;-59
2023/09/22 09:24:44;;;;;;;;;;;22.40;54.00;;;;;;5058447;28;19925;-60
2023/09/22 09:27:14;;;;;;;;;;;22.40;54.00;;;;;;5053609;28;19959;-60
2023/09/22 09:29:41;;;;;;;;;;;22.40;53.90;;;;;;5052372;28;19929;-60
2023/09/22 09:32:08;;;;;;;;;;;22.30;53.80;;;;;;5060337;28;19924;-59
2023/09/22 09:34:38;;;;;;;;;;;22.40;53.80;;;;;;5077633;28;19954;-59
2023/09/22 09:37:14;;;;;;;;;;;22.40;53.70;;;;;;5047828;28;20398;-60
2023/09/22 09:39:46;;;;;;;;;;;22.40;53.70;;;;;;5070481;28;19975;-60
2023/09/22 09:42:15;;;;;;;;;;;22.40;53.60;;;;;;5062475;28;19952;-60
2023/09/22 09:44:42;;;;;;;;;;;22.40;53.50;;;;;;5053346;28;19924;-59
2023/09/22 09:47:09;;;;;;;;;;;22.40;53.50;;;;;;5052666;28;19929;-59
2023/09/22 09:49:38;;;;;;;;;;;22.40;53.40;;;;;;5071365;28;20332;-59
2023/09/22 09:52:09;;;;;;;;;;;22.40;53.30;;;;;;5043343;28;19925;-61
2023/09/22 09:54:37;;;;;;;;;;;22.40;53.30;;;;;;5066212;28;19932;-60
2023/09/22 09:57:05;;;;;;;;;;;22.40;53.30;;;;;;5067570;28;19930;-61
2023/09/22 09:59:34;;;;;;;;;;;22.40;53.30;;;;;;5075820;28;20352;-60
2023/09/22 10:02:01;;;;;;;;;;;22.40;53.30;;;;;;5065186;28;20028;-62
2023/09/22 10:04:28;;;;;;;;;;;22.40;53.30;;;;;;5058418;28;19920;-61
2023/09/22 10:06:54;;;;;;;;;;;22.40;53.40;;;;;;5076561;28;19982;-61
2023/09/22 10:09:21;;;;;;;;;;;22.40;53.40;;;;;;5072489;28;19925;-62
2023/09/22 10:11:50;;;;;;;;;;;22.40;53.50;;;;;;5062753;28;19920;-59
2023/09/22 10:14:31;;;;;;;;;;;22.40;53.40;;;;;;5078683;28;19925;-61
2023/09/22 10:17:01;;;;;;;;;;;22.40;53.40;;;;;;5068560;28;20374;-61
2023/09/22 10:19:41;;;;;;;;;;;22.40;53.40;;;;;;5067772;28;20019;-61
2023/09/22 10:22:11;;;;;;;;;;;22.40;53.40;;;;;;5072640;28;19935;-61
2023/09/22 10:24:38;;;;;;;;;;;22.40;53.40;;;;;;5068363;28;19970;-62
2023/09/22 10:27:08;;;;;;;;;;;22.40;53.30;;;;;;5059933;28;19931;-61
2023/09/22 10:29:51;;;;;;;;;;;22.40;53.20;;;;;;5061462;28;20207;-60
2023/09/22 10:32:25;;;;;;;;;;;22.40;53.20;;;;;;5058033;28;20019;-61
2023/09/22 10:34:53;;;;;;;;;;;22.40;53.10;;;;;;5046624;28;19928;-60
2023/09/22 10:37:20;;;;;;;;;;;22.40;53.10;;;;;;5055969;28;19925;-60
2023/09/22 10:39:54;;;;;;;;;;;22.40;53.10;;;;;;5067696;28;19936;-60
2023/09/22 10:42:21;;;;;;;;;;;22.40;53.10;;;;;;5047292;28;19925;-60
2023/09/22 10:44:55;;;;;;;;;;;22.40;53.10;;;;;;5082902;28;19936;-60
2023/09/22 10:47:23;;;;;;;;;;;22.40;53.10;;;;;;5072207;28;19979;-58
2023/09/22 10:49:50;;;;;;;;;;;22.40;53.10;;;;;;5065474;28;19929;-56
2023/09/22 10:52:18;;;;;;;;;;;22.40;53.20;;;;;;5082157;28;19930;-61
2023/09/22 10:54:46;;;;;;;;;;;22.40;53.10;;;;;;5065389;28;19947;-60
2023/09/22 10:57:23;;;;;;;;;;;22.40;53.10;;;;;;5066830;28;19999;-59
2023/09/22 10:59:50;;;;;;;;;;;22.40;53.10;;;;;;5034151;28;19960;-60
2023/09/22 11:02:23;;;;;;;;;;;22.40;53.10;;;;;;5044673;28;21260;-60
2023/09/22 11:04:50;;;;;;;;;;;22.40;53.20;;;;;;5039815;28;19925;-60
2023/09/22 11:07:30;;;;;;;;;;;22.40;53.20;;;;;;5054474;28;19929;-58
2023/09/22 11:09:57;;;;;;;;;;;22.40;53.10;;;;;;5038582;28;19936;-61
2023/09/22 11:12:24;;;;;;;;;;;22.40;53.00;;;;;;5049168;28;20010;-59
2023/09/22 11:14:51;;;;;;;;;;;22.40;53.00;;;;;;5051806;28;19929;-60
2023/09/22 11:17:18;;;;;;;;;;;22.40;53.00;;;;;;5047841;28;19925;-60
2023/09/22 11:19:53;;;;;;;;;;;22.40;52.90;;;;;;5051526;28;19970;-60
2023/09/22 11:22:20;;;;;;;;;;;22.40;52.90;;;;;;5042334;28;20017;-59
2023/09/22 11:24:47;;;;;;;;;;;22.40;52.90;;;;;;5048620;28;19929;-60
2023/09/22 11:27:14;;;;;;;;;;;22.40;52.90;;;;;;5050102;28;19928;-59
2023/09/22 11:29:41;;;;;;;;;;;22.40;52.90;;;;;;5038935;28;20002;-58
2023/09/22 11:32:08;;;;;;;;;;;22.40;53.50;;;;;;5058630;28;19925;-59
2023/09/22 11:34:45;;;;;;;;;;;22.40;52.80;;;;;;5056573;28;19924;-59
2023/09/22 11:37:13;;;;;;;;;;;22.40;52.80;;;;;;5048369;28;20137;-59
2023/09/22 11:39:40;;;;;;;;;;;22.40;52.70;;;;;;5055011;28;19924;-61
2023/09/22 11:42:06;;;;;;;;;;;22.40;52.60;;;;;;5036439;28;19995;-60
2023/09/22 11:44:33;;;;;;;;;;;22.40;52.50;;;;;;5059879;28;19925;-61
2023/09/22 11:47:01;;;;;;;;;;;22.40;52.40;;;;;;5052001;28;19925;-61
2023/09/22 11:49:34;;;;;;;;;;;22.40;52.30;;;;;;5046034;28;19936;-61
2023/09/22 11:52:01;;;;;;;;;;;22.40;52.30;;;;;;5065364;28;19974;-60
2023/09/22 11:54:31;;;;;;;;;;;22.40;52.30;;;;;;5023756;28;19940;-60
2023/09/22 11:56:58;;;;;;;;;;;22.40;52.20;;;;;;5053824;28;19936;-60
2023/09/22 11:59:27;;;;;;;;;;;22.40;52.20;;;;;;5060825;28;19920;-61
2023/09/22 12:01:54;;;;;;;;;;;22.40;52.20;;;;;;5097064;28;19928;-60
2023/09/22 12:04:22;;;;;;;;;;;22.40;52.20;;;;;;5065307;28;20015;-60
2023/09/22 12:06:49;;;;;;;;;;;22.40;52.20;;;;;;5065949;28;19950;-60
2023/09/22 12:09:16;;;;;;;;;;;22.40;52.20;;;;;;5078966;28;20182;-60
2023/09/22 12:11:44;;;;;;;;;;;22.40;52.30;;;;;;5070523;28;19988;-60
2023/09/22 12:14:11;;;;;;;;;;;22.40;52.30;;;;;;5077718;28;20278;-60
2023/09/22 12:16:38;;;;;;;;;;;22.40;52.30;;;;;;5073401;28;20023;-60
2023/09/22 12:19:05;;;;;;;;;;;22.40;52.40;;;;;;5079680;28;20301;-60
2023/09/22 12:21:32;;;;;;;;;;;22.50;52.40;;;;;;5097171;28;19930;-60
2023/09/22 12:23:59;;;;;;;;;;;22.50;52.40;;;;;;5067492;28;19933;-61
2023/09/22 12:26:26;;;;;;;;;;;22.50;52.40;;;;;;5070375;28;19925;-60
2023/09/22 12:28:54;;;;;;;;;;;22.50;52.50;;;;;;5072650;28;19925;-60
2023/09/22 12:31:21;;;;;;;;;;;22.50;52.40;;;;;;5089138;28;19970;-60
2023/09/22 12:33:48;;;;;;;;;;;22.50;52.50;;;;;;5070281;28;20084;-59
2023/09/22 12:36:16;;;;;;;;;;;22.50;52.50;;;;;;5074337;28;19931;-60
2023/09/22 12:38:43;;;;;;;;;;;22.50;52.50;;;;;;5064527;28;20002;-60
2023/09/22 12:41:10;;;;;;;;;;;22.50;52.50;;;;;;5064253;28;19926;-60
2023/09/22 12:43:37;;;;;;;;;;;22.50;52.40;;;;;;5061596;28;19932;-60
2023/09/22 12:46:09;;;;;;;;;;;22.50;52.50;;;;;;5106879;27;19995;-59
2023/09/22 12:48:37;;;;;;;;;;;22.50;52.40;;;;;;5070293;28;19927;-60
2023/09/22 12:51:04;;;;;;;;;;;22.50;52.50;;;;;;5066184;28;20294;-60
2023/09/22 12:53:31;;;;;;;;;;;22.50;52.50;;;;;;5082641;28;19924;-61
2023/09/22 12:55:58;;;;;;;;;;;22.50;52.50;;;;;;5069714;28;19928;-59
2023/09/22 12:58:26;;;;;;;;;;;22.50;52.40;;;;;;5067583;28;19966;-59
2023/09/22 13:00:53;;;;;;;;;;;22.50;52.30;;;;;;5074076;28;19928;-59
2023/09/22 13:03:22;;;;;;;;;;;22.50;52.20;;;;;;5076225;28;19924;-59
2023/09/22 13:05:48;;;;;;;;;;;22.50;52.00;;;;;;5056648;28;19924;-60
2023/09/22 13:08:15;;;;;;;;;;;22.50;51.80;;;;;;5078179;28;19965;-60
2023/09/22 13:10:43;;;;;;;;;;;22.50;51.70;;;;;;5050652;28;20371;-59
2023/09/22 13:13:09;;;;;;;;;;;22.50;51.60;;;;;;5075191;28;19935;-60
2023/09/22 13:15:36;;;;;;;;;;;22.50;51.60;;;;;;5065047;28;20390;-59
2023/09/22 13:18:03;;;;;;;;;;;22.50;51.60;;;;;;5058815;28;19928;-60
2023/09/22 13:20:34;;;;;;;;;;;22.50;51.60;;;;;;5060756;28;20346;-59
2023/09/22 13:23:01;;;;;;;;;;;22.50;51.70;;;;;;5073398;28;19943;-60
2023/09/22 13:25:29;;;;;;;;;;;22.50;51.80;;;;;;5048125;28;19960;-60
2023/09/22 13:27:57;;;;;;;;;;;22.50;51.90;;;;;;5051191;28;19932;-60
2023/09/22 13:30:24;;;;;;;;;;;22.50;51.80;;;;;;5073549;28;19932;-59
2023/09/22 13:32:50;;;;;;;;;;;22.60;52.00;;;;;;5052487;28;19929;-60
2023/09/22 13:35:17;;;;;;;;;;;22.60;52.00;;;;;;5053056;28;19932;-59
2023/09/22 13:37:45;;;;;;;;;;;22.60;52.00;;;;;;5077280;28;20025;-60
2023/09/22 13:40:12;;;;;;;;;;;22.60;52.00;;;;;;5048923;28;19970;-59
2023/09/22 13:42:39;;;;;;;;;;;22.50;52.00;;;;;;5065039;28;19931;-59
2023/09/22 13:45:07;;;;;;;;;;;22.60;52.00;;;;;;5071745;28;19924;-59
2023/09/22 13:47:33;;;;;;;;;;;22.60;51.90;;;;;;5061790;28;19931;-60
2023/09/22 13:50:00;;;;;;;;;;;22.60;51.90;;;;;;5076100;28;19924;-59
2023/09/22 13:52:27;;;;;;;;;;;22.60;51.90;;;;;;5076797;28;19970;-60
2023/09/22 13:54:55;;;;;;;;;;;22.60;51.90;;;;;;5055479;28;20386;-60
2023/09/22 13:57:22;;;;;;;;;;;22.60;51.90;;;;;;5063187;28;19925;-59
2023/09/22 13:59:52;;;;;;;;;;;22.60;51.90;;;;;;5052744;28;19932;-59
2023/09/22 14:02:19;;;;;;;;;;;22.60;52.00;;;;;;5069635;28;19924;-59
2023/09/22 14:04:46;;;;;;;;;;;22.60;51.90;;;;;;5069656;28;19928;-60
2023/09/22 14:07:13;;;;;;;;;;;22.60;51.90;;;;;;5061446;28;19982;-60
2023/09/22 14:09:39;;;;;;;;;;;22.60;51.80;;;;;;5062808;28;20329;-60
2023/09/22 14:12:08;;;;;;;;;;;22.60;51.70;;;;;;5046374;28;19929;-61
2023/09/22 14:14:34;;;;;;;;;;;22.60;51.70;;;;;;5062400;28;19929;-60
2023/09/22 14:17:01;;;;;;;;;;;22.60;51.80;;;;;;5047419;28;20011;-61
2023/09/22 14:19:28;;;;;;;;;;;22.60;51.70;;;;;;5042689;28;19929;-60